createdAt,value
2023-05-27T00:01:37.226Z,12.00
2023-05-27T00:05:38.988Z,12.00
2023-05-27T00:09:40.874Z,12.00
2023-05-27T00:13:42.703Z,11.90
2023-05-27T00:17:44.519Z,11.90
2023-05-27T00:21:46.315Z,11.80
2023-05-27T00:25:48.473Z,11.80
2023-05-27T00:29:50.366Z,11.80
2023-05-27T00:33:52.229Z,11.70
2023-05-27T00:37:54.040Z,11.80
2023-05-27T00:41:58.066Z,11.70
2023-05-27T00:45:59.947Z,11.60
2023-05-27T00:50:02.027Z,11.60
2023-05-27T00:54:03.976Z,11.50
2023-05-27T00:58:05.914Z,11.50
2023-05-27T01:02:07.975Z,11.50
2023-05-27T01:06:17.008Z,11.40
2023-05-27T01:10:27.917Z,11.30
2023-05-27T01:14:29.647Z,11.30
2023-05-27T01:18:32.009Z,11.10
2023-05-27T01:22:33.783Z,11.10
2023-05-27T01:26:35.723Z,11.00
2023-05-27T01:30:37.458Z,10.90
2023-05-27T01:35:15.096Z,10.80
2023-05-27T01:39:16.897Z,10.80
2023-05-27T01:43:18.999Z,10.70
2023-05-27T01:47:20.750Z,10.60
2023-05-27T01:51:22.527Z,10.50
2023-05-27T01:55:24.509Z,10.40
2023-05-27T01:59:26.275Z,10.30
2023-05-27T02:03:34.619Z,10.20
2023-05-27T02:07:43.504Z,10.10
2023-05-27T02:11:58.509Z,10.10
2023-05-27T02:16:07.525Z,10.00
2023-05-27T02:20:16.566Z,9.90
2023-05-27T02:24:24.518Z,9.80
2023-05-27T02:28:26.356Z,9.70
2023-05-27T02:32:28.160Z,9.60
2023-05-27T02:36:30.164Z,9.50
2023-05-27T02:40:31.916Z,9.50
2023-05-27T02:44:33.712Z,9.40
2023-05-27T02:48:35.540Z,9.40
2023-05-27T02:52:37.308Z,9.40
2023-05-27T02:56:39.215Z,9.40
2023-05-27T03:00:41.559Z,9.30
2023-05-27T03:04:43.704Z,9.30
2023-05-27T03:08:46.242Z,9.30
2023-05-27T03:12:48.165Z,9.30
2023-05-27T03:16:49.966Z,9.40
2023-05-27T03:20:52.318Z,9.50
2023-05-27T03:24:55.263Z,9.80
2023-05-27T03:28:59.594Z,10.00
2023-05-27T03:33:01.461Z,10.40
2023-05-27T03:37:03.304Z,10.90
2023-05-27T03:41:06.565Z,11.60
2023-05-27T03:45:10.423Z,12.30
2023-05-27T03:49:12.164Z,12.90
2023-05-27T03:53:13.971Z,13.40
2023-05-27T03:57:15.851Z,14.30
2023-05-27T04:01:18.177Z,15.20
2023-05-27T04:05:20.030Z,15.60
2023-05-27T04:09:21.883Z,16.40
2023-05-27T04:13:23.802Z,17.00
2023-05-27T04:17:25.615Z,17.90
2023-05-27T04:21:27.727Z,18.70
2023-05-27T04:25:29.513Z,19.30
2023-05-27T04:29:33.087Z,19.90
2023-05-27T04:33:42.361Z,20.30
2023-05-27T04:37:45.622Z,20.90
2023-05-27T04:41:47.546Z,21.30
2023-05-27T04:45:49.633Z,21.80
2023-05-27T04:49:51.620Z,21.60
2023-05-27T04:53:55.416Z,21.80
2023-05-27T04:57:57.715Z,22.60
2023-05-27T05:02:11.953Z,22.70
2023-05-27T05:06:13.882Z,22.30
2023-05-27T05:10:16.379Z,22.40
2023-05-27T05:14:18.349Z,22.70
2023-05-27T05:18:23.145Z,23.20
2023-05-27T05:22:24.978Z,22.90
2023-05-27T05:26:26.916Z,23.80
2023-05-27T05:30:31.592Z,24.50
2023-05-27T05:34:35.759Z,24.70
2023-05-27T05:38:37.643Z,24.70
2023-05-27T05:42:49.718Z,23.30
2023-05-27T05:46:56.241Z,25.10
2023-05-27T05:51:02.237Z,24.70
2023-05-27T05:55:05.525Z,25.50
2023-05-27T05:59:07.649Z,26.30
2023-05-27T06:03:21.384Z,26.50
2023-05-27T06:07:36.842Z,25.90
2023-05-27T06:11:41.364Z,25.00
2023-05-27T06:15:53.187Z,25.40
2023-05-27T06:19:55.098Z,25.20
2023-05-27T06:23:57.021Z,25.90
2023-05-27T06:28:04.284Z,26.30
2023-05-27T06:32:06.605Z,27.80
2023-05-27T06:36:08.649Z,26.80
2023-05-27T06:40:11.405Z,27.20
2023-05-27T06:44:13.311Z,27.70
2023-05-27T06:48:20.101Z,26.60
2023-05-27T06:52:21.962Z,26.90
2023-05-27T06:56:23.900Z,27.00
2023-05-27T07:00:30.123Z,26.50
2023-05-27T07:04:39.377Z,27.30
2023-05-27T07:08:41.337Z,28.40
2023-05-27T07:12:48.296Z,27.30
2023-05-27T07:16:54.680Z,27.10
2023-05-27T07:21:11.019Z,27.40
2023-05-27T07:25:27.574Z,25.70
2023-05-27T07:29:34.068Z,27.00
2023-05-27T07:33:38.903Z,26.50
2023-05-27T07:37:45.737Z,27.00
2023-05-27T07:41:50.458Z,27.00
2023-05-27T07:45:52.419Z,27.90
2023-05-27T07:49:54.330Z,27.10
2023-05-27T07:53:56.559Z,27.10
2023-05-27T07:57:58.578Z,27.20
2023-05-27T08:02:00.501Z,27.60
2023-05-27T08:06:05.559Z,25.60
2023-05-27T08:10:10.083Z,24.40
2023-05-27T08:14:15.484Z,23.80
2023-05-27T08:18:17.767Z,24.40
2023-05-27T08:22:19.879Z,26.30
2023-05-27T08:26:24.903Z,27.20
2023-05-27T08:30:30.258Z,25.90
2023-05-27T08:34:32.247Z,24.60
2023-05-27T08:38:34.234Z,23.50
2023-05-27T08:42:36.244Z,24.10
2023-05-27T08:46:48.484Z,26.30
2023-05-27T08:50:59.441Z,26.50
2023-05-27T08:55:03.450Z,26.20
2023-05-27T08:59:08.336Z,26.50
2023-05-27T09:03:14.594Z,25.60
2023-05-27T09:07:16.750Z,25.30
2023-05-27T09:11:27.358Z,26.20
2023-05-27T09:15:29.527Z,23.50
2023-05-27T09:19:34.504Z,23.90
2023-05-27T09:23:46.610Z,24.30
2023-05-27T09:27:48.398Z,23.00
2023-05-27T09:32:00.778Z,24.00
2023-05-27T09:36:06.313Z,25.10
2023-05-27T09:40:13.690Z,24.10
2023-05-27T09:44:19.412Z,22.90
2023-05-27T09:48:21.784Z,23.00
2023-05-27T09:52:26.918Z,22.10
2023-05-27T09:56:33.500Z,21.60
2023-05-27T10:00:36.075Z,21.10
2023-05-27T10:04:59.995Z,20.70
2023-05-27T10:09:03.234Z,21.20
2023-05-27T10:13:05.121Z,20.70
2023-05-27T10:17:14.481Z,20.60
2023-05-27T10:21:25.790Z,20.40
2023-05-27T10:25:43.336Z,21.10
2023-05-27T10:29:57.651Z,20.10
2023-05-27T10:34:02.182Z,20.20
2023-05-27T10:38:05.390Z,20.80
2023-05-27T10:42:07.364Z,21.10
2023-05-27T10:46:14.481Z,21.00
2023-05-27T10:50:16.406Z,20.40
2023-05-27T10:54:29.186Z,20.30
2023-05-27T10:58:35.970Z,20.00
2023-05-27T11:02:39.516Z,19.90
2023-05-27T11:06:42.125Z,20.30
2023-05-27T11:10:46.992Z,20.80
2023-05-27T11:14:56.417Z,21.10
2023-05-27T11:18:59.383Z,20.50
2023-05-27T11:23:13.475Z,20.80
2023-05-27T11:27:16.099Z,20.80
2023-05-27T11:31:20.406Z,20.60
2023-05-27T11:35:22.251Z,20.70
2023-05-27T11:39:24.185Z,20.70
2023-05-27T11:43:26.074Z,20.70
2023-05-27T11:47:27.957Z,21.10
2023-05-27T11:51:30.960Z,21.80
2023-05-27T11:55:33.056Z,21.20
2023-05-27T11:59:37.791Z,21.20
2023-05-27T12:03:39.748Z,21.70
2023-05-27T12:07:41.807Z,22.20
2023-05-27T12:11:43.796Z,22.50
2023-05-27T12:15:45.688Z,21.70
2023-05-27T12:19:48.104Z,21.50
2023-05-27T12:23:50.001Z,21.30
2023-05-27T12:27:54.120Z,21.10
2023-05-27T12:31:56.739Z,21.40
2023-05-27T12:36:01.897Z,21.90
2023-05-27T12:40:06.229Z,22.00
2023-05-27T12:44:07.995Z,21.50
2023-05-27T12:48:22.278Z,21.40
2023-05-27T12:52:24.181Z,21.90
2023-05-27T12:56:26.863Z,22.30
2023-05-27T13:00:28.880Z,22.30
2023-05-27T13:04:30.893Z,22.20
2023-05-27T13:08:35.540Z,21.80
2023-05-27T13:12:42.485Z,21.70
2023-05-27T13:16:44.457Z,21.60
2023-05-27T13:20:52.671Z,21.90
2023-05-27T13:24:57.571Z,22.10
2023-05-27T13:29:00.011Z,22.00
2023-05-27T13:33:03.046Z,22.20
2023-05-27T13:37:05.189Z,22.40
2023-05-27T13:41:07.083Z,22.10
2023-05-27T13:45:09.769Z,22.10
2023-05-27T13:49:12.134Z,22.00
2023-05-27T13:53:16.932Z,22.10
2023-05-27T13:57:18.774Z,21.80
2023-05-27T14:01:20.920Z,21.90
2023-05-27T14:05:22.821Z,22.10
2023-05-27T14:09:24.665Z,22.00
2023-05-27T14:13:26.526Z,21.80
2023-05-27T14:17:28.282Z,22.20
2023-05-27T14:21:30.050Z,22.10
2023-05-27T14:25:31.866Z,22.10
2023-05-27T14:29:33.678Z,22.10
2023-05-27T14:33:35.554Z,22.40
2023-05-27T14:37:37.407Z,22.30
2023-05-27T14:41:39.203Z,22.50
2023-05-27T14:45:44.083Z,22.60
2023-05-27T14:49:46.015Z,22.80
2023-05-27T14:53:48.011Z,21.90
2023-05-27T14:57:50.372Z,21.80
2023-05-27T15:01:52.177Z,21.70
2023-05-27T15:05:58.886Z,21.80
2023-05-27T15:10:01.248Z,22.10
2023-05-27T15:14:03.388Z,22.00
2023-05-27T15:18:07.347Z,22.10
2023-05-27T15:22:09.157Z,22.10
2023-05-27T15:26:11.063Z,22.00
2023-05-27T15:30:13.179Z,22.10
2023-05-27T15:34:15.109Z,21.90
2023-05-27T15:38:16.945Z,21.80
2023-05-27T15:42:18.793Z,21.90
2023-05-27T15:46:22.209Z,21.80
2023-05-27T15:50:24.148Z,21.90
2023-05-27T15:54:26.059Z,21.80
2023-05-27T15:58:28.131Z,21.80
2023-05-27T16:02:30.054Z,21.60
2023-05-27T16:06:36.429Z,21.50
2023-05-27T16:10:54.975Z,21.50
2023-05-27T16:14:56.897Z,21.50
2023-05-27T16:18:58.657Z,21.60
2023-05-27T16:23:00.447Z,21.60
2023-05-27T16:27:02.718Z,21.60
2023-05-27T16:31:07.191Z,21.50
2023-05-27T16:35:22.122Z,21.40
2023-05-27T16:39:26.955Z,21.30
2023-05-27T16:43:43.900Z,21.10
2023-05-27T16:53:10.825Z,21.00
2023-05-27T16:58:28.664Z,21.00
2023-05-27T17:02:08.506Z,21.00
2023-05-27T17:06:15.215Z,21.00
2023-05-27T17:10:27.150Z,20.80
2023-05-27T17:14:32.246Z,20.70
2023-05-27T17:18:37.363Z,20.80
2023-05-27T17:23:09.088Z,20.60
2023-05-27T17:32:07.444Z,20.50
2023-05-27T17:36:14.423Z,20.40
2023-05-27T17:40:24.179Z,20.30
2023-05-27T17:44:26.349Z,20.20
2023-05-27T17:48:54.261Z,20.20
2023-05-27T17:53:30.033Z,20.00
2023-05-27T17:57:50.522Z,20.00
2023-05-27T18:02:08.498Z,19.80
2023-05-27T18:06:35.024Z,19.80
2023-05-27T18:11:03.673Z,19.70
2023-05-27T18:15:09.414Z,19.60
2023-05-27T18:19:11.665Z,19.50
2023-05-27T18:23:19.328Z,19.40
2023-05-27T18:27:58.498Z,19.30
2023-05-27T18:32:28.121Z,19.20
2023-05-27T18:36:35.096Z,19.10
2023-05-27T18:41:04.628Z,19.10
2023-05-27T18:45:49.811Z,19.00
2023-05-27T18:50:31.700Z,18.90
2023-05-27T18:59:17.397Z,18.60
2023-05-27T19:03:21.338Z,18.50
2023-05-27T19:07:28.665Z,18.40
2023-05-27T19:11:45.358Z,18.20
2023-05-27T19:15:54.064Z,18.20
2023-05-27T19:19:58.467Z,18.00
2023-05-27T19:24:07.525Z,17.90
2023-05-27T19:28:13.615Z,17.80
2023-05-27T19:32:23.630Z,17.70
2023-05-27T19:36:46.254Z,17.60
2023-05-27T19:40:48.193Z,17.50
2023-05-27T19:44:50.839Z,17.50
2023-05-27T19:48:58.028Z,17.30
2023-05-27T19:53:02.524Z,17.20
2023-05-27T19:57:06.363Z,17.00
2023-05-27T20:01:10.755Z,16.80
2023-05-27T20:05:12.932Z,16.70
2023-05-27T20:09:17.163Z,16.60
2023-05-27T20:13:19.196Z,16.40
2023-05-27T20:17:21.025Z,16.20
2023-05-27T20:21:26.798Z,16.10
2023-05-27T20:25:28.760Z,15.90
2023-05-27T20:29:30.549Z,15.80
2023-05-27T20:33:32.310Z,15.70
2023-05-27T20:47:55.739Z,15.50
2023-05-27T20:51:58.015Z,15.40
2023-05-27T20:55:59.909Z,15.30
2023-05-27T21:00:01.787Z,15.20
2023-05-27T21:04:06.310Z,15.10
2023-05-27T21:08:08.552Z,15.00
2023-05-27T21:12:11.179Z,15.00
2023-05-27T21:16:16.338Z,14.80
2023-05-27T21:20:18.365Z,14.70
2023-05-27T21:24:20.163Z,14.60
2023-05-27T21:28:22.090Z,14.50
2023-05-27T21:32:24.150Z,14.50
2023-05-27T21:36:26.677Z,14.40
2023-05-27T21:40:28.600Z,14.40
2023-05-27T21:44:30.544Z,14.30
2023-05-27T21:48:34.378Z,14.20
2023-05-27T21:52:36.423Z,14.10
2023-05-27T21:56:38.443Z,14.00
2023-05-27T22:00:40.442Z,14.00
2023-05-27T22:04:45.670Z,13.90
2023-05-27T22:08:47.626Z,13.80
2023-05-27T22:12:49.385Z,13.70
2023-05-27T22:16:51.314Z,13.70
2023-05-27T22:20:53.289Z,13.60
2023-05-27T22:24:55.053Z,13.60
2023-05-27T22:28:56.858Z,13.50
2023-05-27T22:33:05.341Z,13.40
2023-05-27T22:37:09.874Z,13.30
2023-05-27T22:41:11.884Z,13.30
2023-05-27T22:45:13.737Z,13.10
2023-05-27T22:49:18.634Z,13.10
2023-05-27T22:53:23.155Z,13.00
2023-05-27T22:57:25.091Z,12.90
2023-05-27T23:01:26.993Z,12.80
2023-05-27T23:05:28.972Z,12.80
2023-05-27T23:09:30.999Z,12.70
2023-05-27T23:13:35.798Z,12.60
2023-05-27T23:17:37.650Z,12.50
2023-05-27T23:21:39.564Z,12.50
2023-05-27T23:25:41.484Z,12.30
2023-05-27T23:29:43.340Z,12.30
2023-05-27T23:33:45.125Z,12.20
2023-05-27T23:37:47.033Z,12.10
2023-05-27T23:41:49.128Z,12.00
2023-05-27T23:45:51.091Z,11.90
2023-05-27T23:49:53.074Z,11.80
2023-05-27T23:53:54.913Z,11.90
2023-05-27T23:57:56.675Z,11.80
